createdAt,value
2022-10-26T00:01:23.159Z,99148.50
2022-10-26T00:05:24.604Z,99149.34
2022-10-26T00:09:26.044Z,99147.63
2022-10-26T00:13:27.770Z,99152.81
2022-10-26T00:17:29.227Z,99145.00
2022-10-26T00:21:30.642Z,99134.56
2022-10-26T00:25:31.999Z,99128.47
2022-10-26T00:29:33.355Z,99121.56
2022-10-26T00:33:35.435Z,99142.34
2022-10-26T00:37:36.836Z,99142.34
2022-10-26T00:41:38.229Z,99144.06
2022-10-26T00:45:39.624Z,99144.91
2022-10-26T00:49:41.115Z,99131.91
2022-10-26T00:53:42.595Z,99131.91
2022-10-26T00:57:44.576Z,99130.16
2022-10-26T01:01:47.488Z,99136.31
2022-10-26T01:05:49.575Z,99130.25
2022-10-26T01:09:51.553Z,99120.72
2022-10-26T01:13:53.754Z,99124.25
2022-10-26T01:17:57.410Z,99126.03
2022-10-26T01:22:04.622Z,99126.94
2022-10-26T01:26:22.573Z,99126.88
2022-10-26T01:30:31.512Z,99126.91
2022-10-26T01:34:44.586Z,99145.16
2022-10-26T01:39:03.301Z,99148.56
2022-10-26T01:43:08.034Z,99108.56
2022-10-26T01:47:11.306Z,99144.28
2022-10-26T01:51:13.288Z,99140.94
2022-10-26T01:55:32.975Z,99150.53
2022-10-26T01:59:37.264Z,99158.41
2022-10-26T02:03:57.070Z,99141.94
2022-10-26T02:08:11.012Z,99142.84
2022-10-26T02:12:31.696Z,99132.44
2022-10-26T02:16:46.973Z,99133.38
2022-10-26T02:20:51.396Z,99127.31
2022-10-26T02:24:53.566Z,99131.72
2022-10-26T02:28:56.240Z,99121.31
2022-10-26T02:32:58.034Z,99117.88
2022-10-26T02:37:01.113Z,99136.16
2022-10-26T02:41:03.366Z,99133.69
2022-10-26T02:45:07.078Z,99155.44
2022-10-26T02:49:08.565Z,99140.66
2022-10-26T02:53:25.040Z,99132.81
2022-10-26T02:57:29.925Z,99118.03
2022-10-26T03:01:32.590Z,99114.63
2022-10-26T03:05:36.065Z,99112.00
2022-10-26T03:09:37.415Z,99096.31
2022-10-26T03:13:38.700Z,99099.06
2022-10-26T03:17:40.788Z,99107.72
2022-10-26T03:21:42.331Z,99091.25
2022-10-26T03:25:43.617Z,99095.63
2022-10-26T03:29:44.941Z,99099.09
2022-10-26T03:33:46.446Z,99096.53
2022-10-26T03:37:48.098Z,99092.22
2022-10-26T03:41:50.218Z,99087.09
2022-10-26T03:45:51.488Z,99086.34
2022-10-26T03:49:52.948Z,99088.19
2022-10-26T03:53:54.192Z,99085.75
2022-10-26T03:57:55.525Z,99094.50
2022-10-26T04:01:58.033Z,99084.19
2022-10-26T04:06:03.734Z,99100.69
2022-10-26T04:10:05.849Z,99102.47
2022-10-26T04:14:07.406Z,99109.34
2022-10-26T04:18:09.135Z,99116.19
2022-10-26T04:22:10.980Z,99122.28
2022-10-26T04:26:12.288Z,99130.06
2022-10-26T04:30:14.094Z,99129.19
2022-10-26T04:34:15.652Z,99138.69
2022-10-26T04:38:17.153Z,99145.63
2022-10-26T04:42:18.468Z,99142.09
2022-10-26T04:46:19.785Z,99153.31
2022-10-26T04:50:22.779Z,99165.38
2022-10-26T04:54:26.407Z,99166.03
2022-10-26T04:58:28.295Z,99166.75
2022-10-26T05:02:29.935Z,99165.75
2022-10-26T05:06:31.877Z,99171.69
2022-10-26T05:10:33.750Z,99174.19
2022-10-26T05:14:35.228Z,99178.34
2022-10-26T05:18:38.148Z,99182.59
2022-10-26T05:22:40.560Z,99174.63
2022-10-26T05:26:43.959Z,99179.78
2022-10-26T05:30:46.577Z,99183.19
2022-10-26T05:34:50.941Z,99189.13
2022-10-26T05:38:52.393Z,99196.97
2022-10-26T05:42:59.269Z,99206.44
2022-10-26T05:47:00.769Z,99207.22
2022-10-26T05:51:02.493Z,99202.91
2022-10-26T05:55:03.978Z,99208.06
2022-10-26T05:59:10.888Z,99213.16
2022-10-26T06:03:20.103Z,99214.78
2022-10-26T06:07:21.983Z,99223.47
2022-10-26T06:11:23.453Z,99228.69
2022-10-26T06:15:25.348Z,99240.91
2022-10-26T06:19:32.263Z,99238.28
2022-10-26T06:23:37.077Z,99250.44
2022-10-26T06:27:56.424Z,99255.66
2022-10-26T06:31:58.346Z,99263.50
2022-10-26T06:36:17.480Z,99255.72
2022-10-26T06:40:19.430Z,99254.69
2022-10-26T06:44:22.573Z,99256.25
2022-10-26T06:48:28.247Z,99263.19
2022-10-26T06:52:33.512Z,99282.28
2022-10-26T06:56:36.231Z,99300.50
2022-10-26T07:00:39.080Z,99295.25
2022-10-26T07:04:44.221Z,99301.31
2022-10-26T07:08:45.571Z,99297.88
2022-10-26T07:12:47.461Z,99304.00
2022-10-26T07:16:48.734Z,99303.13
2022-10-26T07:20:52.017Z,99320.38
2022-10-26T07:24:53.378Z,99329.78
2022-10-26T07:28:54.737Z,99338.41
2022-10-26T07:32:59.737Z,99346.03
2022-10-26T07:37:01.230Z,99365.75
2022-10-26T07:41:02.721Z,99363.81
2022-10-26T07:45:04.288Z,99364.41
2022-10-26T07:49:05.671Z,99370.25
2022-10-26T07:53:06.986Z,99376.06
2022-10-26T07:57:08.265Z,99378.31
2022-10-26T08:01:11.289Z,99381.53
2022-10-26T08:05:12.723Z,99383.03
2022-10-26T08:09:14.176Z,99397.59
2022-10-26T08:13:15.828Z,99403.56
2022-10-26T08:17:17.305Z,99400.72
2022-10-26T08:21:25.989Z,99402.34
2022-10-26T08:25:37.000Z,99412.56
2022-10-26T08:29:38.260Z,99406.13
2022-10-26T08:33:44.165Z,99413.69
2022-10-26T08:37:46.401Z,99429.13
2022-10-26T08:41:52.724Z,99443.72
2022-10-26T08:45:57.967Z,99443.38
2022-10-26T08:50:04.797Z,99443.84
2022-10-26T08:54:14.142Z,99451.38
2022-10-26T08:58:18.456Z,99451.22
2022-10-26T09:02:20.372Z,99452.84
2022-10-26T09:06:44.954Z,99461.56
2022-10-26T09:10:56.108Z,99461.38
2022-10-26T09:14:57.533Z,99466.38
2022-10-26T09:19:17.101Z,99472.97
2022-10-26T09:23:24.444Z,99469.88
2022-10-26T09:27:29.843Z,99479.28
2022-10-26T09:31:33.359Z,99486.69
2022-10-26T09:35:43.285Z,99485.38
2022-10-26T09:40:02.844Z,99494.56
2022-10-26T09:44:19.925Z,99491.53
2022-10-26T09:48:31.967Z,99494.00
2022-10-26T09:52:33.429Z,99501.78
2022-10-26T09:56:37.047Z,99506.00
2022-10-26T10:00:38.860Z,99516.25
2022-10-26T10:04:46.695Z,99523.63
2022-10-26T10:09:10.738Z,99524.00
2022-10-26T10:13:16.659Z,99532.09
2022-10-26T10:17:20.590Z,99532.47
2022-10-26T10:21:22.144Z,99535.13
2022-10-26T10:25:26.112Z,99527.66
2022-10-26T10:29:28.873Z,99542.34
2022-10-26T10:33:37.307Z,99535.31
2022-10-26T10:37:46.876Z,99540.69
2022-10-26T10:41:48.198Z,99538.75
2022-10-26T10:45:52.802Z,99535.88
2022-10-26T10:50:02.076Z,99551.06
2022-10-26T10:54:05.884Z,99548.63
2022-10-26T10:58:10.131Z,99548.66
2022-10-26T11:02:30.060Z,99562.88
2022-10-26T11:06:34.340Z,99557.50
2022-10-26T11:10:41.741Z,99556.25
2022-10-26T11:14:47.576Z,99565.47
2022-10-26T11:18:56.640Z,99561.19
2022-10-26T11:23:16.298Z,99562.63
2022-10-26T11:27:21.968Z,99555.25
2022-10-26T11:31:25.133Z,99558.94
2022-10-26T11:35:33.013Z,99565.09
2022-10-26T11:39:38.688Z,99561.31
2022-10-26T11:43:47.721Z,99549.81
2022-10-26T11:52:47.091Z,99561.34
2022-10-26T11:56:51.952Z,99556.38
2022-10-26T12:01:01.345Z,99552.41
2022-10-26T12:05:09.462Z,99560.00
2022-10-26T12:09:21.612Z,99567.63
2022-10-26T12:13:32.097Z,99567.34
2022-10-26T12:18:08.964Z,99574.41
2022-10-26T12:22:18.677Z,99573.63
2022-10-26T12:26:26.708Z,99576.34
2022-10-26T12:30:34.117Z,99580.78
2022-10-26T12:34:52.651Z,99590.28
2022-10-26T12:39:09.073Z,99595.56
2022-10-26T12:43:13.276Z,99594.69
2022-10-26T12:51:47.808Z,99597.63
2022-10-26T12:56:03.105Z,99590.78
2022-10-26T13:00:08.373Z,99597.25
2022-10-26T13:04:23.030Z,99604.31
2022-10-26T13:17:24.993Z,99596.13
2022-10-26T13:26:34.834Z,99604.56
2022-10-26T13:30:45.826Z,99598.84
2022-10-26T13:35:15.815Z,99606.63
2022-10-26T13:39:20.139Z,99603.28
2022-10-26T13:43:22.499Z,99606.03
2022-10-26T13:47:30.753Z,99606.97
2022-10-26T13:51:38.582Z,99599.88
2022-10-26T13:55:51.281Z,99614.88
2022-10-26T14:00:01.365Z,99616.09
2022-10-26T14:04:18.577Z,99627.44
2022-10-26T14:08:21.456Z,99626.66
2022-10-26T14:12:25.635Z,99635.50
2022-10-26T14:16:32.605Z,99628.50
2022-10-26T14:20:34.077Z,99631.25
2022-10-26T14:29:02.702Z,99646.97
2022-10-26T14:33:18.040Z,99645.44
2022-10-26T14:37:24.696Z,99651.78
2022-10-26T14:41:28.425Z,99661.69
2022-10-26T14:45:47.730Z,99665.31
2022-10-26T14:49:50.297Z,99669.13
2022-10-26T14:53:52.631Z,99672.16
2022-10-26T14:58:07.061Z,99664.00
2022-10-26T15:02:11.850Z,99670.50
2022-10-26T15:06:30.572Z,99672.81
2022-10-26T15:10:38.092Z,99676.91
2022-10-26T15:14:44.280Z,99679.97
2022-10-26T15:18:47.028Z,99694.63
2022-10-26T15:22:57.321Z,99691.72
2022-10-26T15:26:59.176Z,99696.94
2022-10-26T15:31:12.580Z,99698.63
2022-10-26T15:35:20.125Z,99705.47
2022-10-26T15:39:22.400Z,99716.69
2022-10-26T15:43:23.687Z,99711.22
2022-10-26T15:47:28.705Z,99714.91
2022-10-26T15:51:30.441Z,99719.03
2022-10-26T15:55:31.731Z,99716.19
2022-10-26T15:59:33.040Z,99731.56
2022-10-26T16:03:34.345Z,99735.53
2022-10-26T16:07:35.666Z,99737.63
2022-10-26T16:11:44.342Z,99743.38
2022-10-26T16:15:48.163Z,99742.94
2022-10-26T16:19:49.618Z,99744.34
2022-10-26T16:23:56.083Z,99742.13
2022-10-26T16:27:58.422Z,99749.69
2022-10-26T16:32:08.472Z,99750.00
2022-10-26T16:36:13.681Z,99755.59
2022-10-26T16:40:14.996Z,99757.00
2022-10-26T16:44:16.344Z,99773.06
2022-10-26T16:48:17.672Z,99778.53
2022-10-26T16:52:19.014Z,99778.94
2022-10-26T16:56:21.705Z,99776.56
2022-10-26T17:00:23.424Z,99776.78
2022-10-26T17:04:24.741Z,99780.53
2022-10-26T17:08:26.745Z,99779.06
2022-10-26T17:12:28.373Z,99799.31
2022-10-26T17:16:30.653Z,99802.91
2022-10-26T17:20:33.202Z,99801.34
2022-10-26T17:24:34.896Z,99805.00
2022-10-26T17:28:45.104Z,99819.97
2022-10-26T17:32:47.178Z,99814.84
2022-10-26T17:36:48.468Z,99825.44
2022-10-26T17:40:51.671Z,99834.28
2022-10-26T17:44:55.305Z,99834.38
2022-10-26T17:48:58.913Z,99844.06
2022-10-26T17:53:00.576Z,99844.22
2022-10-26T17:57:08.836Z,99838.28
2022-10-26T18:01:11.754Z,99849.72
2022-10-26T18:05:13.840Z,99855.00
2022-10-26T18:09:20.592Z,99872.44
2022-10-26T18:13:26.719Z,99869.97
2022-10-26T18:17:29.356Z,99870.88
2022-10-26T18:21:32.369Z,99871.81
2022-10-26T18:25:36.931Z,99887.50
2022-10-26T18:29:39.842Z,99897.06
2022-10-26T18:33:42.789Z,99893.69
2022-10-26T18:37:44.870Z,99906.78
2022-10-26T18:41:50.964Z,99906.78
2022-10-26T18:45:53.457Z,99906.81
2022-10-26T18:49:57.297Z,99916.41
2022-10-26T18:53:59.665Z,99916.44
2022-10-26T18:58:01.199Z,99923.44
2022-10-26T19:02:02.959Z,99924.31
2022-10-26T19:06:12.243Z,99927.84
2022-10-26T19:10:13.544Z,99934.78
2022-10-26T19:14:14.860Z,99938.31
2022-10-26T19:18:16.410Z,99938.34
2022-10-26T19:22:17.677Z,99942.72
2022-10-26T19:26:20.882Z,99946.22
2022-10-26T19:30:22.352Z,99958.38
2022-10-26T19:34:24.130Z,99954.94
2022-10-26T19:38:27.652Z,99952.38
2022-10-26T19:42:31.174Z,99949.75
2022-10-26T19:46:33.382Z,99957.59
2022-10-26T19:50:37.305Z,99962.81
2022-10-26T19:54:38.553Z,99961.09
2022-10-26T19:58:43.709Z,99959.34
2022-10-26T20:02:45.202Z,99973.25
2022-10-26T20:06:54.534Z,99965.44
2022-10-26T20:10:59.829Z,99966.31
2022-10-26T20:15:01.692Z,99968.91
2022-10-26T20:19:03.924Z,99964.59
2022-10-26T20:23:06.489Z,99970.66
2022-10-26T20:27:07.743Z,99969.78
2022-10-26T20:31:09.037Z,99989.72
2022-10-26T20:35:10.268Z,99980.19
2022-10-26T20:39:11.854Z,99983.63
2022-10-26T20:43:17.627Z,99987.09
2022-10-26T20:47:19.179Z,99989.69
2022-10-26T20:51:26.345Z,99987.06
2022-10-26T20:55:33.699Z,99998.34
2022-10-26T20:59:40.735Z,99994.00
2022-10-26T21:03:42.296Z,99994.00
2022-10-26T21:07:44.138Z,100000.94
2022-10-26T21:11:45.576Z,100009.56
2022-10-26T21:15:46.993Z,100008.69
2022-10-26T21:19:48.439Z,100008.69
2022-10-26T21:23:49.700Z,100001.75
2022-10-26T21:27:55.916Z,100003.44
2022-10-26T21:31:57.243Z,100014.69
2022-10-26T21:35:59.198Z,100009.50
2022-10-26T21:40:00.606Z,100019.00
2022-10-26T21:44:14.989Z,100013.81
2022-10-26T21:48:24.808Z,100008.59
2022-10-26T21:52:26.634Z,100004.25
2022-10-26T21:56:27.935Z,100009.44
2022-10-26T22:00:29.595Z,100009.38
2022-10-26T22:04:31.605Z,100005.88
2022-10-26T22:08:33.228Z,100006.75
2022-10-26T22:12:34.794Z,100009.34
2022-10-26T22:16:36.276Z,100011.06
2022-10-26T22:20:37.552Z,100010.16
2022-10-26T22:24:38.846Z,100015.31
2022-10-26T22:28:42.851Z,100019.63
2022-10-26T22:32:44.384Z,100026.53
2022-10-26T22:36:45.703Z,100013.50
2022-10-26T22:40:54.128Z,100010.03
2022-10-26T22:44:55.373Z,100010.00
2022-10-26T22:48:57.840Z,100007.38
2022-10-26T22:52:59.073Z,100003.88
2022-10-26T22:57:00.765Z,100009.00
2022-10-26T23:01:22.447Z,99997.72
2022-10-26T23:05:24.300Z,99990.78
2022-10-26T23:09:25.526Z,100001.09
2022-10-26T23:13:27.339Z,100001.06
2022-10-26T23:17:28.665Z,99995.81
2022-10-26T23:21:30.224Z,99992.31
2022-10-26T23:25:31.561Z,99999.19
2022-10-26T23:29:32.948Z,100009.56
2022-10-26T23:33:34.347Z,100024.28
2022-10-26T23:37:35.671Z,100021.66
2022-10-26T23:41:36.922Z,100025.13
2022-10-26T23:45:38.232Z,100031.19
2022-10-26T23:49:39.570Z,100032.03
2022-10-26T23:53:40.969Z,100029.38
2022-10-26T23:57:42.542Z,100027.66
